Time;durP1;ratioP1;P1;durP2;ratioP2;P2;SDS_P1;SDS_P2;PMS_P1;PMS_P2;Temp;Humidity;BMP_temperature;BMP_pressure;BME280_temperature;BME280_humidity;BME280_pressure;Samples;Min_cycle;Max_cycle;Signal;HPM_P1;HPM_P2
2022/01/04 00:01:01;;;;;;;14.52;2.30;;;8.90;99.90;;;;;;5085684;28;20021;-75
2022/01/04 00:03:26;;;;;;;11.50;1.63;;;8.90;99.90;;;;;;5085412;28;20080;-74
2022/01/04 00:05:52;;;;;;;17.40;1.70;;;8.90;99.90;;;;;;5068679;28;20020;-75
2022/01/04 00:08:18;;;;;;;19.90;2.00;;;8.90;99.90;;;;;;5086776;28;20027;-75
2022/01/04 00:10:43;;;;;;;14.55;2.95;;;8.90;99.90;;;;;;5085067;28;20029;-75
2022/01/04 00:13:24;;;;;;;17.25;1.77;;;8.90;99.90;;;;;;5085529;28;20077;-76
2022/01/04 00:15:55;;;;;;;17.10;2.08;;;9.00;99.90;;;;;;5086317;28;20016;-76
2022/01/04 00:18:21;;;;;;;14.50;1.95;;;8.90;99.90;;;;;;5086757;28;20024;-75
2022/01/04 00:20:48;;;;;;;13.38;1.90;;;8.90;99.90;;;;;;5093094;28;20035;-76
2022/01/04 00:23:15;;;;;;;18.55;2.28;;;9.00;99.90;;;;;;5099252;28;20082;-76
2022/01/04 00:25:41;;;;;;;12.75;2.38;;;8.90;99.90;;;;;;5097308;28;20031;-75
2022/01/04 00:28:07;;;;;;;21.65;2.00;;;8.90;99.90;;;;;;5095786;28;20028;-77
2022/01/04 00:30:38;;;;;;;14.25;1.83;;;8.90;99.90;;;;;;5092614;28;20020;-75
2022/01/04 00:33:06;;;;;;;12.98;2.53;;;8.80;99.90;;;;;;5085180;28;20222;-77
2022/01/04 00:35:32;;;;;;;16.80;3.55;;;8.80;99.90;;;;;;5084839;28;20039;-75
2022/01/04 00:37:58;;;;;;;13.63;1.92;;;8.80;99.90;;;;;;5084754;28;20051;-78
2022/01/04 00:40:25;;;;;;;13.90;1.88;;;8.80;99.90;;;;;;5085838;28;20084;-76
2022/01/04 00:42:52;;;;;;;16.35;2.28;;;8.80;99.90;;;;;;5085078;28;20020;-75
2022/01/04 00:45:19;;;;;;;17.33;2.53;;;8.80;99.90;;;;;;5085101;28;20020;-75
2022/01/04 00:49:09;;;;;;;20.90;2.30;;;8.70;99.90;;;;;;5084591;28;20386;-78
2022/01/04 00:50:32;;;;;;;13.82;1.98;;;8.70;99.90;;;;;;5085009;28;20031;-76
2022/01/04 00:52:58;;;;;;;17.95;2.17;;;8.60;99.90;;;;;;5066898;28;20028;-75
2022/01/04 00:55:25;;;;;;;17.55;2.55;;;8.60;99.90;;;;;;5085843;28;20023;-75
2022/01/04 00:57:50;;;;;;;16.58;2.03;;;8.70;99.90;;;;;;5084475;28;20035;-75
2022/01/04 01:00:17;;;;;;;15.88;2.38;;;8.70;99.90;;;;;;5085343;28;20204;-78
2022/01/04 01:02:44;;;;;;;14.13;2.22;;;8.70;99.90;;;;;;5084495;28;20016;-75
2022/01/04 01:05:10;;;;;;;20.08;3.00;;;8.80;99.90;;;;;;5084174;28;20020;-75
2022/01/04 01:07:36;;;;;;;20.73;3.20;;;8.80;99.90;;;;;;5085462;28;20020;-76
2022/01/04 01:10:25;;;;;;;16.85;3.25;;;8.90;99.90;;;;;;5085248;28;20345;-75
2022/01/04 01:12:52;;;;;;;17.40;2.88;;;8.90;99.90;;;;;;5070848;28;20039;-74
2022/01/04 01:15:18;;;;;;;24.70;3.15;;;8.90;99.90;;;;;;5085516;28;20084;-76
2022/01/04 01:17:43;;;;;;;20.40;3.35;;;9.00;99.90;;;;;;5067437;28;20024;-77
2022/01/04 01:20:11;;;;;;;20.95;3.28;;;9.10;99.90;;;;;;5085405;28;20361;-76
2022/01/04 01:22:37;;;;;;;19.50;2.97;;;9.10;99.90;;;;;;5067549;28;20024;-75
2022/01/04 01:25:04;;;;;;;21.27;3.20;;;9.20;99.90;;;;;;5084971;28;20024;-77
2022/01/04 01:27:30;;;;;;;23.73;2.92;;;9.30;99.90;;;;;;5085085;28;20040;-77
2022/01/04 01:29:56;;;;;;;23.23;3.35;;;9.30;99.90;;;;;;5067322;28;20020;-76
2022/01/04 01:32:21;;;;;;;28.33;3.88;;;9.30;99.90;;;;;;5083918;28;20110;-77
2022/01/04 01:34:47;;;;;;;25.48;2.90;;;9.30;99.90;;;;;;5084618;28;20017;-76
2022/01/04 01:37:13;;;;;;;21.55;3.35;;;9.40;99.90;;;;;;5083574;28;20111;-77
2022/01/04 01:39:38;;;;;;;23.40;3.78;;;9.40;99.90;;;;;;5066867;28;20300;-76
2022/01/04 01:42:04;;;;;;;18.17;2.78;;;9.40;99.90;;;;;;5085071;28;20023;-76
2022/01/04 01:44:31;;;;;;;23.70;3.53;;;9.50;99.90;;;;;;5083676;28;20024;-76
2022/01/04 01:46:58;;;;;;;20.40;2.70;;;9.40;99.90;;;;;;5083382;28;20300;-76
2022/01/04 01:49:24;;;;;;;21.48;3.08;;;9.40;99.90;;;;;;5083672;28;20020;-74
2022/01/04 01:51:51;;;;;;;24.98;3.13;;;9.30;99.90;;;;;;5083187;28;20028;-75
2022/01/04 01:54:16;;;;;;;18.85;3.17;;;9.20;99.90;;;;;;5082963;28;20021;-77
2022/01/04 01:56:42;;;;;;;24.38;2.85;;;9.10;99.90;;;;;;5085614;28;20036;-75
2022/01/04 01:59:08;;;;;;;21.80;3.15;;;9.00;99.90;;;;;;5085001;28;20067;-74
2022/01/04 02:01:34;;;;;;;19.58;2.78;;;8.90;99.90;;;;;;5086578;28;20066;-76
2022/01/04 02:04:00;;;;;;;24.23;3.55;;;8.80;99.90;;;;;;5084565;28;20044;-75
2022/01/04 02:06:29;;;;;;;26.27;3.35;;;8.80;99.90;;;;;;5084564;28;20095;-77
2022/01/04 02:08:57;;;;;;;28.00;3.17;;;8.70;99.90;;;;;;5084523;28;20027;-75
2022/01/04 02:11:25;;;;;;;22.05;2.72;;;8.80;99.90;;;;;;5082959;28;20028;-76
2022/01/04 02:13:50;;;;;;;17.50;2.40;;;8.90;99.90;;;;;;5065920;28;20026;-76
2022/01/04 02:16:17;;;;;;;23.88;3.35;;;8.90;99.90;;;;;;5084136;28;20052;-75
2022/01/04 02:18:42;;;;;;;30.95;3.30;;;8.90;99.90;;;;;;5084275;28;20021;-76
2022/01/04 02:21:09;;;;;;;24.48;3.13;;;8.90;99.90;;;;;;5082788;28;20083;-77
2022/01/04 02:23:34;;;;;;;20.83;2.78;;;8.90;99.90;;;;;;5084280;28;20283;-78
2022/01/04 02:26:03;;;;;;;26.65;3.28;;;8.80;99.90;;;;;;5083910;28;20020;-75
2022/01/04 02:28:29;;;;;;;22.95;3.45;;;8.80;99.90;;;;;;5084168;28;20042;-76
2022/01/04 02:30:56;;;;;;;22.27;3.30;;;8.90;99.90;;;;;;5082779;28;20322;-76
2022/01/04 02:33:21;;;;;;;22.52;3.72;;;8.90;99.90;;;;;;5082670;28;20017;-75
2022/01/04 02:35:47;;;;;;;22.25;3.35;;;8.90;99.90;;;;;;5083810;28;20030;-76
2022/01/04 02:38:13;;;;;;;26.67;3.20;;;8.90;99.90;;;;;;5082565;28;20062;-76
2022/01/04 02:40:39;;;;;;;21.73;2.75;;;9.00;99.90;;;;;;5084043;28;20020;-76
2022/01/04 02:43:05;;;;;;;20.67;2.83;;;9.10;99.90;;;;;;5084142;28;20020;-75
2022/01/04 02:45:30;;;;;;;17.90;2.88;;;9.20;99.90;;;;;;5082932;28;20307;-76
2022/01/04 02:47:56;;;;;;;18.27;2.45;;;9.30;99.90;;;;;;5082659;28;20020;-76
2022/01/04 02:50:22;;;;;;;19.08;3.15;;;9.30;99.90;;;;;;5082607;28;20088;-77
2022/01/04 02:52:48;;;;;;;20.63;3.00;;;9.30;99.90;;;;;;5082670;28;20227;-74
2022/01/04 02:55:15;;;;;;;20.80;2.58;;;9.30;99.90;;;;;;5080972;28;20030;-74
2022/01/04 02:57:41;;;;;;;23.13;3.08;;;9.20;99.90;;;;;;5083713;28;20024;-76
2022/01/04 03:00:11;;;;;;;25.90;3.05;;;9.10;99.90;;;;;;5082417;28;20334;-76
2022/01/04 03:02:37;;;;;;;19.90;2.78;;;9.10;99.90;;;;;;5083826;28;20024;-75
2022/01/04 03:05:04;;;;;;;19.55;3.67;;;9.10;99.90;;;;;;5065633;28;20027;-75
2022/01/04 03:07:30;;;;;;;17.23;3.05;;;9.10;99.90;;;;;;5082620;28;20346;-73
2022/01/04 03:09:56;;;;;;;18.92;2.33;;;9.20;99.90;;;;;;5083370;28;20025;-76
2022/01/04 03:12:22;;;;;;;31.40;2.95;;;9.20;99.90;;;;;;5082669;28;20354;-74
2022/01/04 03:14:47;;;;;;;21.80;2.38;;;9.20;99.90;;;;;;5083782;28;20246;-75
2022/01/04 03:17:13;;;;;;;18.80;2.25;;;9.20;99.90;;;;;;5083773;28;20263;-74
2022/01/04 03:19:39;;;;;;;24.98;3.13;;;9.10;99.90;;;;;;5065761;28;20340;-74
2022/01/04 03:22:05;;;;;;;23.42;3.10;;;9.10;99.90;;;;;;5084776;28;20341;-74
2022/01/04 03:24:31;;;;;;;28.73;2.90;;;9.10;99.90;;;;;;5099221;28;20059;-74
2022/01/04 03:26:58;;;;;;;17.75;2.25;;;9.10;99.90;;;;;;5098865;28;20020;-74
2022/01/04 03:29:24;;;;;;;13.80;2.13;;;9.00;99.90;;;;;;5098235;28;20046;-74
2022/01/04 03:31:50;;;;;;;20.20;2.53;;;8.90;99.90;;;;;;5095048;28;20032;-75
2022/01/04 03:34:16;;;;;;;23.35;2.85;;;8.80;99.90;;;;;;5088839;28;20032;-74
2022/01/04 03:36:42;;;;;;;21.17;2.35;;;8.70;99.90;;;;;;5086708;28;20052;-74
2022/01/04 03:39:10;;;;;;;24.05;3.13;;;8.70;99.90;;;;;;5085027;28;20044;-74
2022/01/04 03:41:39;;;;;;;20.08;2.70;;;8.60;99.90;;;;;;5086198;28;20016;-73
2022/01/04 03:44:07;;;;;;;20.13;2.97;;;8.50;99.90;;;;;;5069659;28;20033;-75
2022/01/04 03:46:33;;;;;;;28.23;2.75;;;8.50;99.90;;;;;;5085543;28;20323;-76
2022/01/04 03:48:59;;;;;;;21.70;3.33;;;8.50;99.90;;;;;;5069226;28;20024;-74
2022/01/04 03:51:25;;;;;;;28.58;3.22;;;8.50;99.90;;;;;;5086936;28;20036;-73
2022/01/04 03:53:50;;;;;;;19.10;2.67;;;8.50;99.90;;;;;;5086809;28;20020;-72
2022/01/04 03:56:17;;;;;;;22.92;3.25;;;8.40;99.90;;;;;;5085339;28;20024;-73
2022/01/04 03:58:43;;;;;;;19.58;2.85;;;8.30;99.90;;;;;;5069312;28;20024;-74
2022/01/04 04:01:08;;;;;;;20.20;2.95;;;8.30;99.90;;;;;;5085599;28;20017;-73
2022/01/04 04:03:34;;;;;;;20.13;3.25;;;8.30;99.90;;;;;;5086681;28;20089;-73
2022/01/04 04:06:00;;;;;;;18.83;2.47;;;8.30;99.90;;;;;;5086778;28;20020;-75
2022/01/04 04:08:26;;;;;;;28.80;3.22;;;8.30;99.90;;;;;;5086552;28;20188;-74
2022/01/04 04:10:52;;;;;;;30.98;3.30;;;8.30;99.90;;;;;;5086480;28;20023;-75
2022/01/04 04:13:18;;;;;;;20.20;2.85;;;8.30;99.90;;;;;;5086877;28;20036;-75
2022/01/04 04:15:44;;;;;;;23.45;2.60;;;8.20;99.90;;;;;;5086580;28;20349;-73
2022/01/04 04:18:10;;;;;;;17.30;2.60;;;8.20;99.90;;;;;;5085420;28;20299;-74
2022/01/04 04:20:37;;;;;;;25.15;2.80;;;8.30;99.90;;;;;;5086333;28;20040;-74
2022/01/04 04:23:04;;;;;;;18.77;2.75;;;8.30;99.90;;;;;;5086349;28;20054;-73
2022/01/04 04:25:30;;;;;;;28.75;3.65;;;8.30;99.90;;;;;;5052209;28;20227;-74
2022/01/04 04:27:56;;;;;;;23.27;3.15;;;8.20;99.90;;;;;;5085407;28;20048;-74
2022/01/04 04:30:22;;;;;;;27.17;3.00;;;8.20;99.90;;;;;;5086025;28;20024;-74
2022/01/04 04:32:47;;;;;;;24.55;3.03;;;8.20;99.90;;;;;;5086315;28;20354;-74
2022/01/04 04:35:13;;;;;;;23.58;3.55;;;8.20;99.90;;;;;;5083878;28;20017;-74
2022/01/04 04:37:39;;;;;;;31.80;3.25;;;8.30;99.90;;;;;;5085908;28;20050;-75
2022/01/04 04:40:06;;;;;;;23.13;2.70;;;8.30;99.90;;;;;;5084892;28;20029;-75
2022/01/04 04:42:32;;;;;;;19.83;2.35;;;8.40;99.90;;;;;;5086069;28;20074;-74
2022/01/04 04:44:57;;;;;;;18.20;2.63;;;8.50;99.90;;;;;;5086126;28;20070;-75
2022/01/04 04:47:23;;;;;;;23.35;3.00;;;8.60;99.90;;;;;;5085985;28;20242;-74
2022/01/04 04:49:49;;;;;;;24.73;3.33;;;8.70;99.90;;;;;;5068173;28;20020;-74
2022/01/04 04:52:14;;;;;;;18.55;2.60;;;8.80;99.90;;;;;;5085668;28;20125;-73
2022/01/04 04:54:40;;;;;;;24.77;3.05;;;8.80;99.90;;;;;;5084876;28;20016;-73
2022/01/04 04:57:06;;;;;;;20.95;2.17;;;8.90;99.90;;;;;;5083941;28;20270;-73
2022/01/04 04:59:31;;;;;;;34.63;2.80;;;8.90;99.90;;;;;;5085706;28;20207;-74
2022/01/04 05:01:57;;;;;;;20.05;2.90;;;8.90;99.90;;;;;;5067654;28;20035;-75
2022/01/04 05:04:23;;;;;;;21.02;2.88;;;8.90;99.90;;;;;;5084220;28;20023;-74
2022/01/04 05:06:49;;;;;;;28.13;2.70;;;8.90;99.90;;;;;;5085700;28;20058;-75
2022/01/04 05:09:14;;;;;;;19.75;2.85;;;9.00;99.90;;;;;;5084201;28;20117;-74
2022/01/04 05:11:40;;;;;;;23.67;2.45;;;9.00;99.90;;;;;;5084355;28;20083;-75
2022/01/04 05:14:06;;;;;;;19.00;3.70;;;9.10;99.90;;;;;;5085572;28;20051;-75
2022/01/04 05:16:31;;;;;;;17.27;2.92;;;9.10;99.90;;;;;;5084361;28;20299;-75
2022/01/04 05:18:57;;;;;;;18.95;2.63;;;9.10;99.90;;;;;;5085333;28;20354;-74
2022/01/04 05:21:23;;;;;;;14.23;2.50;;;9.10;99.90;;;;;;5084935;28;20023;-75
2022/01/04 05:23:50;;;;;;;19.45;2.33;;;9.10;99.90;;;;;;5085239;28;20021;-74
2022/01/04 05:26:16;;;;;;;12.32;2.40;;;9.10;99.90;;;;;;5085288;28;20039;-75
2022/01/04 05:28:45;;;;;;;20.48;2.28;;;9.10;99.90;;;;;;5085214;28;20238;-74
2022/01/04 05:31:11;;;;;;;18.83;2.53;;;9.10;99.90;;;;;;5084760;28;20025;-74
2022/01/04 05:33:37;;;;;;;18.38;2.90;;;9.10;99.90;;;;;;5083629;28;20027;-74
2022/01/04 05:36:03;;;;;;;23.83;2.75;;;9.00;99.90;;;;;;5085123;28;20052;-75
2022/01/04 05:38:29;;;;;;;18.00;2.10;;;9.00;99.90;;;;;;5084873;28;20043;-75
2022/01/04 05:40:55;;;;;;;12.50;1.73;;;8.90;99.90;;;;;;5084621;28;20242;-75
2022/01/04 05:43:21;;;;;;;11.63;2.42;;;8.90;99.90;;;;;;5085048;28;20023;-74
2022/01/04 05:45:46;;;;;;;17.17;2.40;;;8.90;99.90;;;;;;5084893;28;20039;-74
2022/01/04 05:48:12;;;;;;;16.27;1.85;;;8.80;99.90;;;;;;5083563;28;20043;-76
2022/01/04 05:50:39;;;;;;;19.75;2.63;;;8.80;99.90;;;;;;5084764;28;20241;-76
2022/01/04 05:53:05;;;;;;;14.82;2.28;;;8.80;99.90;;;;;;5084366;28;20039;-76
2022/01/04 05:55:31;;;;;;;13.73;2.80;;;8.90;99.90;;;;;;5084367;28;20020;-77
2022/01/04 05:57:57;;;;;;;11.93;2.40;;;8.90;99.90;;;;;;5082257;28;20023;-76
2022/01/04 06:00:22;;;;;;;16.50;2.15;;;8.90;99.90;;;;;;5084695;28;20326;-74
2022/01/04 06:02:48;;;;;;;9.98;1.80;;;8.80;99.90;;;;;;5084261;28;20196;-74
2022/01/04 06:05:14;;;;;;;13.05;1.70;;;8.80;99.90;;;;;;5083059;28;20020;-75
2022/01/04 06:07:39;;;;;;;13.50;1.75;;;8.80;99.90;;;;;;5083342;28;20196;-74
2022/01/04 06:10:07;;;;;;;12.57;1.85;;;8.90;99.90;;;;;;5084490;28;20032;-75
2022/01/04 06:15:06;;;;;;;8.38;1.50;;;8.80;99.90;;;;;;5066865;28;20032;-76
2022/01/04 06:17:34;;;;;;;8.68;1.42;;;8.90;99.90;;;;;;5084329;28;20012;-77
2022/01/04 06:20:01;;;;;;;9.82;1.52;;;8.90;99.90;;;;;;5084350;28;20031;-74
2022/01/04 06:22:27;;;;;;;9.48;1.40;;;8.90;99.90;;;;;;5082631;28;20025;-75
2022/01/04 06:24:54;;;;;;;15.00;1.88;;;8.90;99.90;;;;;;5084510;28;20031;-75
2022/01/04 06:27:21;;;;;;;9.50;1.52;;;8.90;99.90;;;;;;5092662;28;20078;-74
2022/01/04 06:29:47;;;;;;;7.65;1.48;;;8.90;99.90;;;;;;5096808;28;20088;-74
2022/01/04 06:32:13;;;;;;;6.70;1.52;;;8.80;99.90;;;;;;5095048;28;20034;-74
2022/01/04 06:34:40;;;;;;;12.55;1.33;;;8.80;99.90;;;;;;5091334;28;20024;-75
2022/01/04 06:37:06;;;;;;;8.55;1.70;;;8.80;99.90;;;;;;5089697;28;20281;-76
2022/01/04 06:39:33;;;;;;;8.82;1.50;;;8.80;99.90;;;;;;5083493;28;20056;-74
2022/01/04 06:41:59;;;;;;;7.82;1.38;;;8.80;99.90;;;;;;5083949;28;20101;-76
2022/01/04 06:44:25;;;;;;;8.75;1.20;;;8.80;99.90;;;;;;5066205;28;20048;-76
2022/01/04 06:46:51;;;;;;;1.75;0.38;;;8.80;99.90;;;;;;5083938;28;20017;-73
2022/01/04 06:49:18;;;;;;;2.63;0.60;;;8.50;99.90;;;;;;5082850;28;20048;-72
2022/01/04 06:51:45;;;;;;;1.50;0.30;;;8.00;99.90;;;;;;5083828;28;20024;-73
2022/01/04 06:54:12;;;;;;;0.70;0.15;;;7.50;99.90;;;;;;5082494;28;20021;-71
2022/01/04 06:56:38;;;;;;;0.82;0.17;;;7.10;99.90;;;;;;5082750;28;20319;-71
2022/01/04 06:59:05;;;;;;;0.77;0.20;;;6.70;99.90;;;;;;5083106;28;20036;-72
2022/01/04 07:01:31;;;;;;;1.50;0.20;;;6.50;99.90;;;;;;5087464;28;20315;-69
2022/01/04 07:03:57;;;;;;;0.52;0.30;;;6.30;99.90;;;;;;5086352;28;20013;-69
2022/01/04 07:06:23;;;;;;;3.67;0.32;;;6.20;99.90;;;;;;5086565;28;20062;-71
2022/01/04 07:08:48;;;;;;;2.40;0.50;;;6.20;99.90;;;;;;5088213;28;20028;-71
2022/01/04 07:11:15;;;;;;;0.50;0.50;;;6.00;99.90;;;;;;5086563;28;20033;-70
2022/01/04 07:13:41;;;;;;;0.98;0.57;;;5.90;99.90;;;;;;5086555;28;20039;-70
2022/01/04 07:16:06;;;;;;;0.60;0.60;;;5.80;99.90;;;;;;5087872;28;20020;-70
2022/01/04 07:18:32;;;;;;;0.80;0.70;;;5.70;99.90;;;;;;5069557;28;20021;-72
2022/01/04 07:20:58;;;;;;;1.48;0.90;;;5.60;99.90;;;;;;5087463;28;20323;-70
2022/01/04 07:23:24;;;;;;;2.28;0.98;;;5.60;99.90;;;;;;5087401;28;20074;-71
2022/01/04 07:25:50;;;;;;;2.42;1.00;;;5.50;99.90;;;;;;5087484;28;20057;-69
2022/01/04 07:28:15;;;;;;;1.20;1.10;;;5.40;99.90;;;;;;5087416;28;20064;-70
2022/01/04 07:30:41;;;;;;;2.45;1.40;;;5.30;99.90;;;;;;5085939;28;20019;-70
2022/01/04 07:33:07;;;;;;;2.00;1.00;;;5.30;99.90;;;;;;5085969;28;20035;-71
2022/01/04 07:35:33;;;;;;;1.00;0.90;;;5.20;99.90;;;;;;5085822;28;20017;-70
2022/01/04 07:37:59;;;;;;;1.25;1.15;;;5.10;99.90;;;;;;5085812;28;20053;-70
2022/01/04 07:40:25;;;;;;;0.98;0.98;;;5.00;99.90;;;;;;5087303;28;20337;-70
2022/01/04 07:42:50;;;;;;;1.20;1.10;;;5.00;99.90;;;;;;5085689;28;20100;-72
2022/01/04 07:45:16;;;;;;;1.27;0.80;;;4.90;99.90;;;;;;5087082;28;20020;-71
2022/01/04 07:47:42;;;;;;;1.27;1.17;;;4.90;99.90;;;;;;5086921;28;20022;-71
2022/01/04 07:50:11;;;;;;;0.80;0.80;;;4.90;99.90;;;;;;5085782;28;20025;-69
2022/01/04 07:52:37;;;;;;;2.58;0.73;;;4.80;99.90;;;;;;5085691;28;20024;-70
2022/01/04 07:55:04;;;;;;;0.60;0.60;;;4.70;99.90;;;;;;5086709;28;20211;-70
2022/01/04 07:57:30;;;;;;;0.57;0.40;;;4.70;99.90;;;;;;5085716;28;20047;-70
2022/01/04 07:59:56;;;;;;;2.67;0.52;;;4.70;99.90;;;;;;5085504;28;20016;-69
2022/01/04 08:02:21;;;;;;;1.77;0.80;;;4.60;99.90;;;;;;5085555;28;20020;-70
2022/01/04 08:04:47;;;;;;;0.50;0.50;;;4.50;99.90;;;;;;5084632;28;20021;-71
2022/01/04 08:07:13;;;;;;;0.40;0.40;;;4.50;99.90;;;;;;5085606;28;20022;-70
2022/01/04 08:09:39;;;;;;;0.50;0.50;;;4.40;99.90;;;;;;5084493;28;20020;-70
2022/01/04 08:12:05;;;;;;;1.15;0.40;;;4.40;99.90;;;;;;5084913;28;20368;-69
2022/01/04 08:14:30;;;;;;;0.75;0.30;;;4.40;99.90;;;;;;5085864;28;20028;-69
2022/01/04 08:16:56;;;;;;;0.40;0.20;;;4.40;99.90;;;;;;5086380;28;20024;-70
2022/01/04 08:19:22;;;;;;;1.95;0.43;;;4.30;99.90;;;;;;5068326;28;20091;-72
2022/01/04 08:21:48;;;;;;;0.25;0.25;;;4.30;99.90;;;;;;5086269;28;20028;-72
2022/01/04 08:24:13;;;;;;;0.45;0.20;;;4.40;99.90;;;;;;5085375;28;20048;-71
2022/01/04 08:26:39;;;;;;;0.50;0.38;;;4.40;99.90;;;;;;5085496;28;20075;-71
2022/01/04 08:29:05;;;;;;;0.40;0.40;;;4.40;99.90;;;;;;5080975;28;20029;-70
2022/01/04 08:31:31;;;;;;;1.58;0.50;;;4.40;99.90;;;;;;5080870;28;20344;-74
2022/01/04 08:33:58;;;;;;;0.43;0.32;;;4.40;99.90;;;;;;5104550;28;20020;-72
2022/01/04 08:36:28;;;;;;;1.30;0.70;;;4.40;99.90;;;;;;5086063;28;20024;-71
2022/01/04 08:38:54;;;;;;;1.00;0.65;;;4.40;99.90;;;;;;5084264;28;20155;-70
2022/01/04 08:41:20;;;;;;;0.63;0.63;;;4.30;99.90;;;;;;5085104;28;20029;-71
2022/01/04 08:43:46;;;;;;;0.95;0.60;;;4.30;99.90;;;;;;5085873;28;20104;-72
2022/01/04 08:46:12;;;;;;;1.08;0.50;;;4.30;99.90;;;;;;5084098;28;20036;-70
2022/01/04 08:48:37;;;;;;;0.50;0.50;;;4.30;99.90;;;;;;5084840;28;20334;-70
2022/01/04 08:51:04;;;;;;;0.40;0.40;;;4.20;99.90;;;;;;5085196;28;20028;-70
2022/01/04 08:53:30;;;;;;;0.63;0.30;;;4.20;99.90;;;;;;5085371;28;20012;-71
2022/01/04 08:56:01;;;;;;;0.63;0.30;;;4.10;99.90;;;;;;5085447;28;20350;-73
2022/01/04 08:58:27;;;;;;;0.40;0.40;;;4.10;99.90;;;;;;5084699;28;20040;-71
2022/01/04 09:00:53;;;;;;;1.35;0.43;;;4.20;99.90;;;;;;5083609;28;20250;-72
2022/01/04 09:03:18;;;;;;;0.30;0.30;;;4.20;99.90;;;;;;5085597;28;20021;-74
2022/01/04 09:05:44;;;;;;;1.58;0.40;;;4.20;99.90;;;;;;5084619;28;20058;-73
2022/01/04 09:08:10;;;;;;;0.90;0.65;;;4.20;99.90;;;;;;5084197;28;20173;-71
2022/01/04 09:10:36;;;;;;;0.77;0.35;;;4.20;99.90;;;;;;5067023;28;20028;-75
2022/01/04 09:13:10;;;;;;;1.17;0.43;;;4.10;99.90;;;;;;5084952;28;20059;-71
2022/01/04 09:21:07;;;;;;;1.25;1.10;;;4.00;99.90;;;;;;5069290;28;20026;-75
2022/01/04 09:23:33;;;;;;;1.10;0.40;;;4.10;99.90;;;;;;5063987;28;20041;-73
2022/01/04 09:25:59;;;;;;;0.22;0.20;;;4.10;99.90;;;;;;5064033;28;20315;-75
2022/01/04 09:28:25;;;;;;;2.00;0.40;;;4.20;99.90;;;;;;5066126;28;20028;-74
2022/01/04 09:30:51;;;;;;;0.32;0.22;;;4.20;99.90;;;;;;5071248;28;20096;-71
2022/01/04 09:33:18;;;;;;;0.40;0.35;;;4.30;99.90;;;;;;5083851;28;20060;-72
2022/01/04 09:35:45;;;;;;;0.40;0.40;;;4.30;99.90;;;;;;5084695;28;20060;-72
2022/01/04 09:38:11;;;;;;;0.68;0.20;;;4.30;99.90;;;;;;5083177;28;20059;-74
2022/01/04 09:40:38;;;;;;;1.25;0.20;;;4.40;99.90;;;;;;5083350;28;20085;-74
2022/01/04 09:43:05;;;;;;;0.65;0.10;;;4.50;99.90;;;;;;5066886;28;20024;-75
2022/01/04 09:45:31;;;;;;;0.57;0.20;;;4.50;99.90;;;;;;5083324;28;20321;-73
2022/01/04 09:47:57;;;;;;;2.00;0.20;;;4.60;99.90;;;;;;5066796;28;20051;-74
2022/01/04 09:50:23;;;;;;;0.60;0.20;;;4.50;99.90;;;;;;5066590;28;20035;-73
2022/01/04 09:52:50;;;;;;;0.85;0.30;;;4.50;99.90;;;;;;5084354;28;20031;-73
2022/01/04 09:55:17;;;;;;;2.42;0.20;;;4.40;99.90;;;;;;5083271;28;20056;-74
2022/01/04 09:57:45;;;;;;;0.25;0.20;;;4.40;99.90;;;;;;5083116;28;20020;-73
2022/01/04 10:00:14;;;;;;;0.38;0.30;;;4.40;99.90;;;;;;5066664;28;20211;-72
2022/01/04 10:02:42;;;;;;;0.85;0.22;;;4.30;99.90;;;;;;5081162;28;20047;-73
2022/01/04 10:05:19;;;;;;;1.88;0.35;;;4.30;99.90;;;;;;5082168;28;20409;-72
2022/01/04 10:07:46;;;;;;;0.80;0.30;;;4.30;99.90;;;;;;5084007;28;20020;-74
2022/01/04 10:10:13;;;;;;;0.30;0.20;;;4.30;99.90;;;;;;5082808;28;20106;-74
2022/01/04 10:12:59;;;;;;;0.90;0.45;;;4.30;99.90;;;;;;5049737;28;20095;-77
2022/01/04 10:15:42;;;;;;;0.98;0.60;;;4.40;99.90;;;;;;5083669;28;20024;-74
2022/01/04 10:18:23;;;;;;;2.47;0.40;;;4.40;99.90;;;;;;5082783;28;20203;-71
2022/01/04 10:21:12;;;;;;;3.65;0.50;;;4.50;99.90;;;;;;5083003;28;20024;-71
2022/01/04 10:23:55;;;;;;;0.88;0.50;;;4.50;99.90;;;;;;5082851;28;20032;-72
2022/01/04 10:26:32;;;;;;;1.88;0.65;;;4.50;99.90;;;;;;5084314;28;20054;-75
2022/01/04 10:28:58;;;;;;;1.65;0.50;;;4.60;99.90;;;;;;5082977;28;20203;-74
2022/01/04 10:31:24;;;;;;;0.73;0.60;;;4.60;99.90;;;;;;5077558;28;20043;-73
2022/01/04 10:33:53;;;;;;;3.35;0.57;;;4.60;99.90;;;;;;5103068;28;20075;-73
2022/01/04 10:36:21;;;;;;;1.85;0.75;;;4.70;99.90;;;;;;5102829;28;20019;-72
2022/01/04 10:38:48;;;;;;;1.02;0.43;;;4.80;99.90;;;;;;5103052;28;20058;-70
2022/01/04 10:41:26;;;;;;;1.25;0.70;;;4.80;99.90;;;;;;5102478;28;20083;-77
2022/01/04 10:43:59;;;;;;;4.68;0.70;;;4.80;99.90;;;;;;5104209;28;20062;-72
2022/01/04 10:46:38;;;;;;;3.83;0.85;;;4.90;99.90;;;;;;5097728;28;20031;-71
2022/01/04 10:49:21;;;;;;;2.38;0.80;;;5.00;99.90;;;;;;5083796;28;20188;-73
2022/01/04 10:52:04;;;;;;;2.25;0.77;;;5.00;99.90;;;;;;5083352;28;20025;-72
2022/01/04 10:54:30;;;;;;;3.70;0.93;;;5.10;99.90;;;;;;5083460;28;20070;-74
2022/01/04 10:57:04;;;;;;;2.08;0.60;;;5.00;99.90;;;;;;5082827;28;20226;-73
2022/01/04 10:59:30;;;;;;;5.35;1.35;;;5.20;99.90;;;;;;5082356;28;20020;-73
2022/01/04 11:01:56;;;;;;;5.80;0.90;;;5.30;99.90;;;;;;5080694;28;20027;-73
2022/01/04 11:04:21;;;;;;;1.25;0.43;;;5.30;99.90;;;;;;5083326;28;20025;-72
2022/01/04 11:06:49;;;;;;;3.50;0.75;;;5.30;99.90;;;;;;5081670;28;20074;-71
2022/01/04 11:09:18;;;;;;;2.83;0.68;;;5.30;99.90;;;;;;5083567;28;20028;-70
2022/01/04 11:11:44;;;;;;;2.60;0.60;;;5.30;99.90;;;;;;5082066;28;20024;-69
2022/01/04 11:14:11;;;;;;;3.88;0.77;;;5.40;99.90;;;;;;5065724;28;20219;-71
2022/01/04 11:16:37;;;;;;;5.32;1.00;;;5.50;99.90;;;;;;5083127;28;20035;-71
2022/01/04 11:19:03;;;;;;;5.38;0.60;;;5.40;99.50;;;;;;5082406;28;20023;-72
2022/01/04 11:21:37;;;;;;;3.33;1.30;;;5.40;99.90;;;;;;5081723;28;20070;-72
2022/01/04 11:24:06;;;;;;;4.20;0.88;;;5.50;99.90;;;;;;5081737;28;20379;-73
2022/01/04 11:26:32;;;;;;;3.92;0.85;;;5.50;99.60;;;;;;5048836;28;20025;-73
2022/01/04 11:28:58;;;;;;;9.85;1.15;;;5.60;99.50;;;;;;5083177;28;20021;-73
2022/01/04 11:31:58;;;;;;;5.95;1.15;;;5.60;99.80;;;;;;5081991;28;20200;-72
2022/01/04 11:35:04;;;;;;;6.15;1.33;;;5.70;99.60;;;;;;5081711;28;20028;-74
2022/01/04 11:37:30;;;;;;;4.80;0.80;;;5.60;99.70;;;;;;5081992;28;20031;-73
2022/01/04 11:39:57;;;;;;;5.35;1.00;;;5.60;99.70;;;;;;5082241;28;20025;-73
2022/01/04 11:42:38;;;;;;;7.25;0.73;;;5.60;99.60;;;;;;5083126;28;20123;-72
2022/01/04 11:45:10;;;;;;;4.35;0.80;;;5.70;99.10;;;;;;5085126;28;20021;-76
2022/01/04 11:47:37;;;;;;;10.18;1.10;;;5.70;99.50;;;;;;5085579;28;20028;-73
2022/01/04 11:50:21;;;;;;;6.57;0.80;;;5.80;99.10;;;;;;5086808;28;20025;-74
2022/01/04 11:52:49;;;;;;;8.35;1.15;;;5.70;98.60;;;;;;5085532;28;20021;-73
2022/01/04 11:55:37;;;;;;;5.57;0.82;;;5.60;99.10;;;;;;5085187;28;20021;-72
2022/01/04 11:58:09;;;;;;;7.40;1.15;;;5.70;98.80;;;;;;5083765;28;20029;-70
2022/01/04 12:00:39;;;;;;;7.13;1.35;;;5.70;99.20;;;;;;5083023;28;20016;-72
2022/01/04 12:03:09;;;;;;;6.95;1.35;;;5.60;99.20;;;;;;5084409;28;20017;-73
2022/01/04 12:05:38;;;;;;;6.00;1.27;;;5.70;98.90;;;;;;5085123;28;20059;-71
2022/01/04 12:08:21;;;;;;;5.40;0.98;;;5.60;99.00;;;;;;5086108;28;20303;-71
2022/01/04 12:10:48;;;;;;;10.45;1.45;;;5.60;99.40;;;;;;5084953;28;20073;-72
2022/01/04 12:13:16;;;;;;;6.85;0.93;;;5.50;98.90;;;;;;5084129;28;20047;-71
2022/01/04 12:15:57;;;;;;;6.90;1.52;;;5.50;99.40;;;;;;5086075;28;20020;-72
2022/01/04 12:18:58;;;;;;;9.60;1.27;;;5.60;98.70;;;;;;5064634;28;20219;-75
2022/01/04 12:21:28;;;;;;;4.45;0.95;;;5.50;98.80;;;;;;5065172;28;20087;-74
2022/01/04 12:23:56;;;;;;;7.00;1.27;;;5.50;99.10;;;;;;5075799;28;20092;-73
2022/01/04 12:26:24;;;;;;;10.85;1.30;;;5.60;98.90;;;;;;5086001;28;20207;-74
2022/01/04 12:29:18;;;;;;;9.25;1.50;;;5.60;99.50;;;;;;5083494;28;20028;-72
2022/01/04 12:31:48;;;;;;;8.25;1.17;;;5.60;98.20;;;;;;5086137;28;20035;-71
2022/01/04 12:34:39;;;;;;;9.90;1.58;;;5.60;98.00;;;;;;5103970;28;20039;-74
2022/01/04 12:37:07;;;;;;;10.60;1.33;;;5.60;97.70;;;;;;5104303;28;20028;-73
2022/01/04 12:39:42;;;;;;;8.38;1.48;;;5.60;97.40;;;;;;5105167;28;20051;-75
2022/01/04 12:42:10;;;;;;;8.75;1.27;;;5.60;97.80;;;;;;5105576;28;20099;-73
2022/01/04 12:44:36;;;;;;;5.22;1.52;;;5.60;97.80;;;;;;5104416;28;20028;-74
2022/01/04 12:47:03;;;;;;;11.05;1.33;;;5.70;97.30;;;;;;5094451;28;20028;-74
2022/01/04 12:49:31;;;;;;;8.48;1.42;;;5.70;97.80;;;;;;5083792;28;20193;-73
2022/01/04 12:52:00;;;;;;;8.43;1.52;;;5.80;97.10;;;;;;5082075;28;20300;-73
2022/01/04 12:54:29;;;;;;;8.32;1.42;;;5.80;97.00;;;;;;5081966;28;20028;-74
2022/01/04 12:56:59;;;;;;;9.70;1.40;;;5.80;96.90;;;;;;5081546;28;20017;-74
2022/01/04 12:59:33;;;;;;;11.55;1.40;;;5.80;97.30;;;;;;5083962;28;20008;-75
2022/01/04 13:02:15;;;;;;;8.45;1.38;;;5.80;97.20;;;;;;5084099;28;20322;-73
2022/01/04 13:04:45;;;;;;;9.77;1.27;;;5.80;97.50;;;;;;5065690;28;20469;-73